createdAt,value
2022-10-28T03:59:07.656Z,1013.60
2022-10-28T04:00:07.778Z,1013.54
2022-10-28T04:01:08.123Z,1013.54
2022-10-28T04:02:08.123Z,1013.51
2022-10-28T04:03:09.715Z,1013.59
2022-10-28T04:04:08.257Z,1013.52
2022-10-28T04:05:09.365Z,1013.54
2022-10-28T04:06:08.545Z,1013.48
2022-10-28T04:07:08.684Z,1013.44
2022-10-28T04:08:10.414Z,1013.44
2022-10-28T04:09:08.985Z,1013.48
2022-10-28T04:10:09.141Z,1013.40
2022-10-28T04:11:09.263Z,1013.46
2022-10-28T04:12:09.418Z,1013.45
2022-10-28T04:13:11.132Z,1013.44
2022-10-28T04:14:09.663Z,1013.47
2022-10-28T04:15:10.812Z,1013.44
2022-10-28T04:16:11.022Z,1013.47
2022-10-28T04:17:10.063Z,1013.48
2022-10-28T04:18:11.152Z,1013.51
2022-10-28T04:19:10.324Z,1013.41
2022-10-28T04:20:10.464Z,1013.42
2022-10-28T04:21:12.181Z,1013.42
2022-10-28T04:22:10.756Z,1013.41
2022-10-28T04:23:10.895Z,1013.46
2022-10-28T04:24:11.031Z,1013.44
2022-10-28T04:25:12.153Z,1013.38
2022-10-28T04:26:12.891Z,1013.39
2022-10-28T04:27:11.442Z,1013.43
2022-10-28T04:28:11.522Z,1013.40
2022-10-28T04:29:13.250Z,1013.45
2022-10-28T04:30:11.831Z,1013.44
2022-10-28T04:31:13.541Z,1013.40
2022-10-28T04:32:12.125Z,1013.45
2022-10-28T04:33:12.274Z,1013.45
2022-10-28T04:34:13.482Z,1013.43
2022-10-28T04:35:12.551Z,1013.41
2022-10-28T04:36:12.681Z,1013.42
2022-10-28T04:37:14.110Z,1013.45
2022-10-28T04:38:14.626Z,1013.35
2022-10-28T04:39:14.090Z,1013.35
2022-10-28T04:40:14.809Z,1013.33
2022-10-28T04:41:13.400Z,1013.35
2022-10-28T04:42:13.562Z,1013.38
2022-10-28T04:43:15.289Z,1013.40
2022-10-28T04:44:13.859Z,1013.37
2022-10-28T04:45:14.000Z,1013.41
2022-10-28T04:46:14.141Z,1013.38
2022-10-28T04:47:14.270Z,1013.41
2022-10-28T04:48:15.991Z,1013.44
2022-10-28T04:49:14.579Z,1013.44
2022-10-28T04:50:15.775Z,1013.47
2022-10-28T04:51:14.828Z,1013.49
2022-10-28T04:52:15.904Z,1013.47
2022-10-28T04:53:16.667Z,1013.49
2022-10-28T04:54:15.242Z,1013.46
2022-10-28T04:55:15.377Z,1013.43
2022-10-28T04:56:15.519Z,1013.39
2022-10-28T04:57:15.657Z,1013.32
2022-10-28T04:58:15.845Z,1013.31
2022-10-28T04:59:17.526Z,1013.35
2022-10-28T05:00:16.107Z,1013.26
2022-10-28T05:01:16.369Z,1013.32
2022-10-28T05:02:16.455Z,1013.33
2022-10-28T05:03:18.056Z,1013.24
2022-10-28T05:04:17.566Z,1013.28
2022-10-28T05:06:18.444Z,1013.21
2022-10-28T05:07:18.767Z,1013.21
2022-10-28T05:08:17.147Z,1013.18
2022-10-28T05:09:17.290Z,1013.16
2022-10-28T05:10:17.426Z,1013.15
2022-10-28T05:11:19.149Z,1013.15
2022-10-28T05:12:19.366Z,1013.18
2022-10-28T05:13:19.578Z,1013.14
2022-10-28T05:14:18.043Z,1013.17
2022-10-28T05:15:18.167Z,1013.17
2022-10-28T05:16:19.880Z,1013.16
2022-10-28T05:17:20.096Z,1013.21
2022-10-28T05:18:18.606Z,1013.21
2022-10-28T05:19:18.735Z,1013.29
2022-10-28T05:20:19.954Z,1013.27
2022-10-28T05:21:19.794Z,1013.22
2022-10-28T05:22:19.204Z,1013.23
2022-10-28T05:23:20.385Z,1013.32
2022-10-28T05:24:21.104Z,1013.25
2022-10-28T05:25:19.563Z,1013.29
2022-10-28T05:26:19.713Z,1013.27
2022-10-28T05:27:19.833Z,1013.29
2022-10-28T05:28:21.553Z,1013.26
2022-10-28T05:29:20.122Z,1013.28
2022-10-28T05:30:20.269Z,1013.30
2022-10-28T05:31:20.392Z,1013.23
2022-10-28T05:32:20.524Z,1013.26
2022-10-28T05:33:22.253Z,1013.27
2022-10-28T05:34:20.825Z,1013.28
2022-10-28T05:35:20.942Z,1013.29
2022-10-28T05:36:21.072Z,1013.27
2022-10-28T05:37:21.200Z,1013.26
2022-10-28T05:38:22.912Z,1013.30
2022-10-28T05:39:21.481Z,1013.28
2022-10-28T05:40:21.612Z,1013.24
2022-10-28T05:41:23.326Z,1013.30
2022-10-28T05:42:21.902Z,1013.28
2022-10-28T05:43:23.121Z,1013.23
2022-10-28T05:44:23.842Z,1013.33
2022-10-28T05:45:23.353Z,1013.32
2022-10-28T05:46:23.464Z,1013.32
2022-10-28T05:47:24.187Z,1013.32
2022-10-28T05:48:22.732Z,1013.32
2022-10-28T05:49:24.469Z,1013.27
2022-10-28T05:50:25.504Z,1013.25
2022-10-28T05:51:24.163Z,1013.25
2022-10-28T05:52:24.195Z,1013.25
2022-10-28T05:53:24.142Z,1013.24
2022-10-28T05:54:25.100Z,1013.22
2022-10-28T05:55:24.639Z,1013.21
2022-10-28T05:56:23.811Z,1013.22
2022-10-28T05:57:23.919Z,1013.21
2022-10-28T05:58:24.067Z,1013.22
2022-10-28T05:59:25.777Z,1013.24
2022-10-28T06:00:24.369Z,1013.23
2022-10-28T06:01:24.565Z,1013.24
2022-10-28T06:02:26.212Z,1013.26
2022-10-28T06:03:30.045Z,1013.20
2022-10-28T06:04:25.878Z,1013.24
2022-10-28T06:05:25.027Z,1013.29
2022-10-28T06:06:25.109Z,1013.26
2022-10-28T06:07:26.828Z,1013.40
2022-10-28T06:08:25.435Z,1013.35
2022-10-28T06:09:25.570Z,1013.40
2022-10-28T06:10:25.728Z,1013.43
2022-10-28T06:11:24.341Z,1013.38
2022-10-28T06:12:24.502Z,1013.42
2022-10-28T06:13:26.173Z,1013.43
2022-10-28T06:14:24.703Z,1013.41
2022-10-28T06:15:25.843Z,1013.45
2022-10-28T06:16:25.022Z,1013.45
2022-10-28T06:17:26.767Z,1013.44
2022-10-28T06:18:25.287Z,1013.41
2022-10-28T06:19:26.438Z,1013.40
2022-10-28T06:20:26.539Z,1013.43
2022-10-28T06:21:26.670Z,1013.43
2022-10-28T06:22:27.390Z,1013.40
2022-10-28T06:23:25.977Z,1013.44
2022-10-28T06:24:27.692Z,1013.42
2022-10-28T06:25:27.224Z,1013.42
2022-10-28T06:26:26.404Z,1013.44
2022-10-28T06:27:28.125Z,1013.41
2022-10-28T06:28:26.715Z,1013.40
2022-10-28T06:29:28.449Z,1013.39
2022-10-28T06:30:26.916Z,1013.36
2022-10-28T06:31:27.101Z,1013.38
2022-10-28T06:32:27.230Z,1013.41
2022-10-28T06:33:27.388Z,1013.38
2022-10-28T06:34:28.619Z,1013.37
2022-10-28T06:35:27.654Z,1013.37
2022-10-28T06:36:27.781Z,1013.36
2022-10-28T06:37:27.942Z,1013.37
2022-10-28T06:38:28.093Z,1013.37
2022-10-28T06:39:29.840Z,1013.41
2022-10-28T06:40:28.403Z,1013.47
2022-10-28T06:41:28.508Z,1013.44
2022-10-28T06:42:28.666Z,1013.44
2022-10-28T06:43:30.392Z,1013.42
2022-10-28T06:44:30.601Z,1013.48
2022-10-28T06:45:30.328Z,1013.46
2022-10-28T06:46:29.299Z,1013.43
2022-10-28T06:47:30.963Z,1013.45
2022-10-28T06:48:31.113Z,1013.40
2022-10-28T06:49:32.324Z,1013.43
2022-10-28T06:50:31.374Z,1013.44
2022-10-28T06:51:31.558Z,1013.47
2022-10-28T06:52:31.652Z,1013.41
2022-10-28T06:53:31.777Z,1013.44
2022-10-28T06:54:32.990Z,1013.44
2022-10-28T06:55:33.007Z,1013.48
2022-10-28T06:56:33.731Z,1013.45
2022-10-28T06:57:32.269Z,1013.44
2022-10-28T06:58:33.980Z,1013.46
2022-10-28T06:59:32.589Z,1013.42
2022-10-28T07:00:32.728Z,1013.51
2022-10-28T07:01:32.992Z,1013.47
2022-10-28T07:02:33.080Z,1013.47
2022-10-28T07:03:34.773Z,1013.49
2022-10-28T07:04:33.304Z,1013.49
2022-10-28T07:05:33.463Z,1013.44
2022-10-28T07:06:33.625Z,1013.44
2022-10-28T07:07:35.344Z,1013.46
2022-10-28T07:08:33.923Z,1013.51
2022-10-28T07:09:35.652Z,1013.53
2022-10-28T07:10:35.878Z,1013.57
2022-10-28T07:11:34.370Z,1013.54
2022-10-28T07:12:36.084Z,1013.58
2022-10-28T07:13:34.630Z,1013.58
2022-10-28T07:14:34.782Z,1013.59
2022-10-28T07:15:36.521Z,1013.58
2022-10-28T07:16:35.050Z,1013.63
2022-10-28T07:17:35.205Z,1013.63
2022-10-28T07:18:36.931Z,1013.69
2022-10-28T07:19:35.528Z,1013.74
2022-10-28T07:20:37.255Z,1013.69
2022-10-28T07:21:37.475Z,1013.70
2022-10-28T07:22:37.696Z,1013.75
2022-10-28T07:23:36.017Z,1013.74
2022-10-28T07:24:36.157Z,1013.74
2022-10-28T07:25:37.906Z,1013.76
2022-10-28T07:26:36.436Z,1013.71
2022-10-28T07:27:36.578Z,1013.77
2022-10-28T07:28:38.288Z,1013.77
2022-10-28T07:29:36.907Z,1013.70
2022-10-28T07:30:38.619Z,1013.72
2022-10-28T07:31:37.234Z,1013.72
2022-10-28T07:32:37.311Z,1013.65
2022-10-28T07:33:39.032Z,1013.66
2022-10-28T07:34:38.630Z,1013.67
2022-10-28T07:35:38.840Z,1013.68
2022-10-28T07:36:37.863Z,1013.64
2022-10-28T07:37:39.594Z,1013.67
2022-10-28T07:38:39.133Z,1013.67
2022-10-28T07:39:38.285Z,1013.66
2022-10-28T07:40:40.024Z,1013.63
2022-10-28T07:41:38.553Z,1013.66
2022-10-28T07:42:40.282Z,1013.66
2022-10-28T07:43:40.503Z,1013.68
2022-10-28T07:44:40.731Z,1013.67
2022-10-28T07:45:40.954Z,1013.69
2022-10-28T07:46:39.160Z,1013.65
2022-10-28T07:47:39.315Z,1013.66
2022-10-28T07:48:41.035Z,1013.68
2022-10-28T07:49:39.631Z,1013.67
2022-10-28T07:50:41.352Z,1013.68
2022-10-28T07:51:39.829Z,1013.66
2022-10-28T07:52:41.556Z,1013.68
2022-10-28T07:53:41.757Z,1013.66
2022-10-28T07:54:40.236Z,1013.69
2022-10-28T07:55:41.982Z,1013.65
2022-10-28T07:56:40.536Z,1013.72
2022-10-28T07:57:42.274Z,1013.69
2022-10-28T07:58:40.810Z,1013.73
2022-10-28T07:59:42.533Z,1013.73
2022-10-28T08:00:41.121Z,1013.73
2022-10-28T08:01:42.908Z,1013.70
2022-10-28T08:02:42.268Z,1013.80
2022-10-28T08:03:43.036Z,1013.72
2022-10-28T08:04:43.265Z,1013.72
2022-10-28T08:05:43.483Z,1013.75
2022-10-28T08:06:41.858Z,1013.71
2022-10-28T08:07:43.578Z,1013.70
2022-10-28T08:08:43.796Z,1013.72
2022-10-28T08:09:42.122Z,1013.72
2022-10-28T08:10:43.886Z,1013.73
2022-10-28T08:11:42.337Z,1013.68
2022-10-28T08:12:42.487Z,1013.74
2022-10-28T08:13:42.645Z,1013.69
2022-10-28T08:14:44.365Z,1013.71
2022-10-28T08:15:44.084Z,1013.73
2022-10-28T08:16:42.990Z,1013.66
2022-10-28T08:17:43.148Z,1013.65
2022-10-28T08:18:43.316Z,1013.68
2022-10-28T08:19:45.035Z,1013.70
2022-10-28T08:20:45.268Z,1013.68
2022-10-28T08:21:45.524Z,1013.69
2022-10-28T08:22:45.744Z,1013.70
2022-10-28T08:23:45.972Z,1013.71
2022-10-28T08:24:45.692Z,1013.72
2022-10-28T08:25:45.901Z,1013.71
2022-10-28T08:26:44.435Z,1013.72
2022-10-28T08:27:46.144Z,1013.76
2022-10-28T08:28:46.361Z,1013.69
2022-10-28T08:29:46.628Z,1013.70
2022-10-28T08:30:57.074Z,1013.67
2022-10-28T08:31:46.079Z,1013.70
2022-10-28T08:32:46.811Z,1013.68
2022-10-28T08:33:47.039Z,1013.70
2022-10-28T08:34:47.250Z,1013.65
2022-10-28T08:35:47.479Z,1013.69
2022-10-28T08:36:47.229Z,1013.67
2022-10-28T08:37:47.431Z,1013.68
2022-10-28T08:38:47.671Z,1013.71
2022-10-28T08:39:46.049Z,1013.70
2022-10-28T08:40:46.218Z,1013.69
2022-10-28T08:41:46.369Z,1013.68
2022-10-28T08:42:48.099Z,1013.68
2022-10-28T08:43:57.168Z,1013.65
2022-10-28T08:44:49.349Z,1013.67
2022-10-28T08:45:46.921Z,1013.69
2022-10-28T08:46:47.012Z,1013.69
2022-10-28T08:47:47.225Z,1013.67
2022-10-28T08:48:47.302Z,1013.64
2022-10-28T08:49:49.439Z,1013.65
2022-10-28T08:50:47.632Z,1013.65
2022-10-28T08:51:47.780Z,1013.73
2022-10-28T08:52:49.502Z,1013.64
2022-10-28T08:53:49.761Z,1013.66
2022-10-28T08:54:49.971Z,1013.64
2022-10-28T08:55:51.182Z,1013.64
2022-10-28T08:56:50.402Z,1013.66
2022-10-28T08:57:50.632Z,1013.62
2022-10-28T08:58:50.356Z,1013.67
2022-10-28T08:59:50.600Z,1013.68
2022-10-28T09:00:50.811Z,1013.68
2022-10-28T09:01:51.178Z,1013.67
2022-10-28T09:02:51.445Z,1013.65
2022-10-28T09:03:51.024Z,1013.65
2022-10-28T09:04:51.249Z,1013.64
2022-10-28T09:05:51.461Z,1013.64
2022-10-28T09:06:51.680Z,1013.69
2022-10-28T09:07:51.429Z,1013.64
2022-10-28T09:08:51.641Z,1013.70
2022-10-28T09:09:50.118Z,1013.68
2022-10-28T09:10:50.278Z,1013.73
2022-10-28T09:11:50.440Z,1013.71
2022-10-28T09:12:50.723Z,1013.70
2022-10-28T09:13:52.342Z,1013.65
2022-10-28T09:14:50.830Z,1013.66
2022-10-28T09:15:50.939Z,1013.61
2022-10-28T09:16:51.681Z,1013.60
2022-10-28T09:17:51.389Z,1013.55
2022-10-28T09:18:51.361Z,1013.56
2022-10-28T09:19:51.461Z,1013.57
2022-10-28T09:20:51.619Z,1013.57
2022-10-28T09:21:52.350Z,1013.58
2022-10-28T09:22:52.227Z,1013.55
2022-10-28T09:23:52.082Z,1013.53
2022-10-28T09:24:53.218Z,1013.54
2022-10-28T09:25:53.457Z,1013.52
2022-10-28T09:26:53.179Z,1013.55
2022-10-28T09:27:53.695Z,1013.55
2022-10-28T09:28:53.700Z,1013.52
2022-10-28T09:29:52.869Z,1013.53
2022-10-28T09:30:53.971Z,1013.50
2022-10-28T09:31:54.701Z,1013.54
2022-10-28T09:32:54.278Z,1013.49
2022-10-28T09:33:53.409Z,1013.47
2022-10-28T09:34:53.519Z,1013.50
2022-10-28T09:35:55.262Z,1013.51
2022-10-28T09:36:53.788Z,1013.54
2022-10-28T09:37:54.913Z,1013.50
2022-10-28T09:38:53.988Z,1013.50
2022-10-28T09:39:54.717Z,1013.56
2022-10-28T09:40:55.959Z,1013.52
2022-10-28T09:41:56.207Z,1013.53
2022-10-28T09:42:56.402Z,1013.58
2022-10-28T09:43:56.626Z,1013.62
2022-10-28T09:44:56.944Z,1013.60
2022-10-28T09:45:56.610Z,1013.58
2022-10-28T09:46:56.838Z,1013.67
2022-10-28T09:47:57.264Z,1013.62
2022-10-28T09:48:57.327Z,1013.63
2022-10-28T09:49:57.567Z,1013.62
2022-10-28T09:50:57.294Z,1013.59
2022-10-28T09:51:55.875Z,1013.58
2022-10-28T09:52:57.096Z,1013.53
2022-10-28T09:53:56.176Z,1013.58
2022-10-28T09:54:56.336Z,1013.59
2022-10-28T09:55:58.135Z,1013.58
2022-10-28T09:56:58.296Z,1013.55
2022-10-28T09:57:58.525Z,1013.58
2022-10-28T09:58:58.736Z,1013.56
2022-10-28T09:59:58.984Z,1013.56
2022-10-28T10:00:58.716Z,1013.55
2022-10-28T10:01:58.996Z,1013.50
2022-10-28T10:13:19.217Z,1013.33
2022-10-28T10:14:20.315Z,1013.40
2022-10-28T10:15:20.462Z,1013.44
2022-10-28T10:16:19.604Z,1013.48
2022-10-28T10:17:21.327Z,1013.47
2022-10-28T10:18:19.915Z,1013.53
2022-10-28T10:19:21.072Z,1013.49
2022-10-28T10:20:21.232Z,1013.50
2022-10-28T10:21:20.363Z,1013.58
2022-10-28T10:22:22.591Z,1013.54
2022-10-28T10:23:20.622Z,1013.53
2022-10-28T10:24:22.344Z,1013.57
2022-10-28T10:25:20.923Z,1013.56
2022-10-28T10:26:21.072Z,1013.57
2022-10-28T10:27:22.912Z,1013.54
2022-10-28T10:28:21.331Z,1013.50
2022-10-28T10:29:21.493Z,1013.50
2022-10-28T10:30:21.630Z,1013.52
2022-10-28T10:31:21.800Z,1013.49
2022-10-28T10:32:23.520Z,1013.53
2022-10-28T10:33:22.080Z,1013.51
2022-10-28T10:34:22.161Z,1013.52
2022-10-28T10:35:23.390Z,1013.48
2022-10-28T10:36:23.473Z,1013.46
2022-10-28T10:37:22.675Z,1013.54
2022-10-28T10:38:24.353Z,1013.50
2022-10-28T10:39:22.870Z,1013.48
2022-10-28T10:40:24.590Z,1013.43
2022-10-28T10:41:24.819Z,1013.49
2022-10-28T10:42:23.311Z,1013.45
2022-10-28T10:43:25.028Z,1013.49
2022-10-28T10:44:25.249Z,1013.53
2022-10-28T10:45:24.670Z,1013.57
2022-10-28T10:46:23.799Z,1013.56
2022-10-28T10:47:24.912Z,1013.55
2022-10-28T10:48:25.628Z,1013.61
2022-10-28T10:49:24.243Z,1013.65
2022-10-28T10:50:24.392Z,1013.62
2022-10-28T10:51:24.440Z,1013.56
2022-10-28T10:52:24.574Z,1013.52
2022-10-28T10:53:26.289Z,1013.55
2022-10-28T10:54:24.808Z,1013.64
2022-10-28T10:55:24.909Z,1013.54
2022-10-28T10:56:26.618Z,1013.53
2022-10-28T10:57:25.239Z,1013.49
2022-10-28T10:58:25.383Z,1013.54
2022-10-28T10:59:25.509Z,1013.54
2022-10-28T11:00:25.671Z,1013.51
2022-10-28T11:01:25.973Z,1013.52
2022-10-28T11:02:27.641Z,1013.52
2022-10-28T11:03:27.763Z,1013.52
2022-10-28T11:04:26.239Z,1013.49
2022-10-28T11:05:35.697Z,1013.49
2022-10-28T11:06:27.504Z,1013.49
2022-10-28T11:07:28.245Z,1013.49
2022-10-28T11:08:26.775Z,1013.47
2022-10-28T11:09:26.927Z,1013.46
2022-10-28T11:10:28.653Z,1013.45
2022-10-28T11:11:27.218Z,1013.45
2022-10-28T11:12:27.387Z,1013.50
2022-10-28T11:13:27.559Z,1013.42
2022-10-28T11:14:29.266Z,1013.48
2022-10-28T11:15:27.797Z,1013.47
2022-10-28T11:16:29.526Z,1013.40
2022-10-28T11:17:28.231Z,1013.38
2022-10-28T11:18:29.847Z,1013.38
2022-10-28T11:19:29.578Z,1013.40
2022-10-28T11:20:28.516Z,1013.39
2022-10-28T11:21:30.177Z,1013.39
2022-10-28T11:22:30.387Z,1013.40
2022-10-28T11:23:30.596Z,1013.37
2022-10-28T11:24:29.044Z,1013.39
2022-10-28T11:25:30.765Z,1013.40
2022-10-28T11:26:29.296Z,1013.33
2022-10-28T11:27:29.450Z,1013.38
2022-10-28T11:28:31.184Z,1013.41
2022-10-28T11:29:29.694Z,1013.38
2022-10-28T11:30:29.860Z,1013.41
2022-10-28T11:31:30.030Z,1013.42
2022-10-28T11:32:30.165Z,1013.37
2022-10-28T11:33:32.433Z,1013.39
2022-10-28T11:34:32.126Z,1013.41
2022-10-28T11:35:32.437Z,1013.37
2022-10-28T11:36:30.954Z,1013.41
2022-10-28T11:37:32.444Z,1013.41
2022-10-28T11:38:32.665Z,1013.40
2022-10-28T11:39:31.084Z,1013.37
2022-10-28T11:40:32.832Z,1013.39
2022-10-28T11:41:31.404Z,1013.36
2022-10-28T11:42:33.144Z,1013.36
2022-10-28T11:43:33.364Z,1013.36
2022-10-28T11:44:31.938Z,1013.33
2022-10-28T11:45:33.623Z,1013.27
2022-10-28T11:46:32.157Z,1013.27
2022-10-28T11:47:33.883Z,1013.22
2022-10-28T11:48:34.099Z,1013.24
2022-10-28T11:49:34.332Z,1013.21
2022-10-28T11:50:32.695Z,1013.20
2022-10-28T11:51:35.388Z,1013.20
2022-10-28T11:52:33.005Z,1013.16
2022-10-28T11:53:34.732Z,1013.17
2022-10-28T11:54:34.964Z,1013.17
2022-10-28T11:55:34.447Z,1013.18
2022-10-28T11:56:35.184Z,1013.21
2022-10-28T11:57:35.376Z,1013.18
2022-10-28T11:58:35.610Z,1013.20
2022-10-28T11:59:34.861Z,1013.12
2022-10-28T12:00:34.040Z,1013.14
2022-10-28T12:01:35.879Z,1013.14
2022-10-28T12:02:34.354Z,1013.07
2022-10-28T12:03:34.471Z,1013.04
2022-10-28T12:04:36.201Z,1013.07
2022-10-28T12:05:36.412Z,1013.08
2022-10-28T12:06:36.648Z,1013.04
2022-10-28T12:07:36.872Z,1013.06
2022-10-28T12:08:36.612Z,1013.06
2022-10-28T12:09:36.861Z,1013.04
2022-10-28T12:10:37.104Z,1012.97
2022-10-28T12:11:37.321Z,1013.00
2022-10-28T12:12:41.119Z,1013.03
2022-10-28T12:13:35.790Z,1013.03
2022-10-28T12:14:37.512Z,1013.01
2022-10-28T12:15:37.791Z,1012.98
2022-10-28T12:16:37.162Z,1012.99
2022-10-28T12:17:37.941Z,1012.96
2022-10-28T12:18:38.170Z,1012.90
2022-10-28T12:19:38.421Z,1012.93
2022-10-28T12:20:38.658Z,1012.93
2022-10-28T12:21:38.872Z,1012.96
2022-10-28T12:22:37.020Z,1012.93
2022-10-28T12:23:38.742Z,1012.97
2022-10-28T12:24:39.009Z,1012.89
2022-10-28T12:25:39.195Z,1012.93
2022-10-28T12:26:39.422Z,1012.90
2022-10-28T12:27:39.645Z,1012.93
2022-10-28T12:28:39.381Z,1012.90
2022-10-28T12:29:37.948Z,1012.97
2022-10-28T12:30:39.687Z,1012.92
2022-10-28T12:31:39.898Z,1012.96
2022-10-28T12:32:38.369Z,1012.94
2022-10-28T12:33:38.541Z,1012.94
2022-10-28T12:34:38.715Z,1012.91
2022-10-28T12:35:40.438Z,1012.90
2022-10-28T12:36:40.150Z,1012.90
2022-10-28T12:37:43.391Z,1012.81
2022-10-28T12:38:42.116Z,1012.83
2022-10-28T12:39:39.383Z,1012.87
2022-10-28T12:40:41.111Z,1012.81
2022-10-28T12:42:41.578Z,1012.81
2022-10-28T12:43:41.837Z,1012.78
2022-10-28T12:44:42.095Z,1012.75
2022-10-28T12:45:41.823Z,1012.73
2022-10-28T12:46:42.081Z,1012.74
2022-10-28T12:47:43.405Z,1012.71
2022-10-28T12:48:40.697Z,1012.70
2022-10-28T12:49:42.406Z,1012.73
2022-10-28T12:50:42.648Z,1012.74
2022-10-28T12:51:42.866Z,1012.73
2022-10-28T12:52:43.095Z,1012.66
2022-10-28T12:53:43.316Z,1012.70
2022-10-28T12:54:43.028Z,1012.69
2022-10-28T12:55:43.364Z,1012.69
2022-10-28T12:56:43.528Z,1012.75
2022-10-28T12:57:43.727Z,1012.69
2022-10-28T12:58:43.950Z,1012.68
2022-10-28T12:59:42.299Z,1012.62
2022-10-28T13:00:44.014Z,1012.61
2022-10-28T13:01:44.356Z,1012.66
2022-10-28T13:02:42.735Z,1012.58
2022-10-28T13:03:43.860Z,1012.64
2022-10-28T13:04:43.015Z,1012.65
2022-10-28T13:05:45.234Z,1012.56
2022-10-28T13:06:43.292Z,1012.55
2022-10-28T13:07:43.440Z,1012.55
2022-10-28T13:08:45.198Z,1012.53
2022-10-28T13:09:45.398Z,1012.53
2022-10-28T13:10:45.613Z,1012.48
2022-10-28T13:11:45.844Z,1012.60
2022-10-28T13:12:46.084Z,1012.60
2022-10-28T13:13:46.372Z,1012.58
2022-10-28T13:14:46.034Z,1012.58
2022-10-28T13:15:46.273Z,1012.59
2022-10-28T13:16:46.504Z,1012.56
2022-10-28T13:17:46.721Z,1012.57
2022-10-28T13:18:46.958Z,1012.61
2022-10-28T13:19:46.705Z,1012.48
2022-10-28T13:20:46.931Z,1012.52
2022-10-28T13:21:47.154Z,1012.54
2022-10-28T13:22:47.388Z,1012.62
2022-10-28T13:23:47.602Z,1012.61
2022-10-28T13:24:47.844Z,1012.53
2022-10-28T13:25:47.600Z,1012.49
2022-10-28T13:26:47.863Z,1012.44
2022-10-28T13:27:48.041Z,1012.47
2022-10-28T13:28:46.480Z,1012.41
2022-10-28T13:29:46.632Z,1012.42
2022-10-28T13:30:46.794Z,1012.49
2022-10-28T13:31:48.512Z,1012.48
2022-10-28T13:32:47.102Z,1012.44
2022-10-28T13:33:47.253Z,1012.47
2022-10-28T13:34:49.079Z,1012.45
2022-10-28T13:35:47.559Z,1012.39
2022-10-28T13:36:47.610Z,1012.41
2022-10-28T13:37:49.331Z,1012.38
2022-10-28T13:38:49.559Z,1012.37
2022-10-28T13:39:48.056Z,1012.39
2022-10-28T13:40:49.818Z,1012.38
2022-10-28T13:41:50.014Z,1012.34
2022-10-28T13:42:50.255Z,1012.36
2022-10-28T13:43:50.472Z,1012.37
2022-10-28T13:44:50.718Z,1012.34
2022-10-28T13:45:50.424Z,1012.33
2022-10-28T13:46:50.658Z,1012.34
2022-10-28T13:47:49.138Z,1012.33
2022-10-28T13:48:49.879Z,1012.30
2022-10-28T13:49:51.101Z,1012.28
2022-10-28T13:50:50.590Z,1012.32
2022-10-28T13:51:51.278Z,1012.26
2022-10-28T13:52:50.578Z,1012.27
2022-10-28T13:53:50.757Z,1012.28
2022-10-28T13:54:51.033Z,1012.27
2022-10-28T13:55:52.227Z,1012.30
2022-10-28T13:56:50.467Z,1012.29
2022-10-28T13:57:51.220Z,1012.29
2022-10-28T13:58:50.611Z,1012.31
2022-10-28T13:59:52.357Z,1012.29
2022-10-28T14:00:53.288Z,1012.30
2022-10-28T14:02:01.711Z,1012.34
2022-10-28T14:02:52.667Z,1012.31
2022-10-28T14:03:51.465Z,1012.31
2022-10-28T14:04:53.156Z,1012.29
2022-10-28T14:05:51.725Z,1012.28
2022-10-28T14:06:51.827Z,1012.25
2022-10-28T14:07:52.339Z,1012.30
2022-10-28T14:08:52.136Z,1012.30
2022-10-28T14:09:52.864Z,1012.29
2022-10-28T14:10:52.434Z,1012.35
2022-10-28T14:11:52.584Z,1012.36
2022-10-28T14:12:53.162Z,1012.31
2022-10-28T14:13:53.455Z,1012.31
2022-10-28T14:14:53.715Z,1012.34
2022-10-28T14:15:53.245Z,1012.41
2022-10-28T14:16:53.325Z,1012.40
2022-10-28T14:17:55.799Z,1012.42
2022-10-28T14:18:54.203Z,1012.45
2022-10-28T14:19:53.715Z,1012.47
2022-10-28T14:20:55.455Z,1012.48
2022-10-28T14:21:57.714Z,1012.53
2022-10-28T14:22:56.683Z,1012.52
2022-10-28T14:23:54.913Z,1012.44
2022-10-28T14:24:54.444Z,1012.48
2022-10-28T14:25:55.611Z,1012.49
2022-10-28T14:26:55.313Z,1012.53
2022-10-28T14:27:55.164Z,1012.51
2022-10-28T14:28:54.993Z,1012.46
2022-10-28T14:29:55.133Z,1012.42
2022-10-28T14:30:56.864Z,1012.41
2022-10-28T14:31:55.451Z,1012.44
2022-10-28T14:32:57.290Z,1012.43
2022-10-28T14:33:55.753Z,1012.43
2022-10-28T14:34:55.904Z,1012.41
2022-10-28T14:35:56.051Z,1012.39
2022-10-28T14:36:56.191Z,1012.43
2022-10-28T14:37:57.923Z,1012.44
2022-10-28T14:38:56.501Z,1012.46
2022-10-28T14:39:56.641Z,1012.42
2022-10-28T14:40:56.803Z,1012.45
2022-10-28T14:41:57.017Z,1012.45
2022-10-28T14:42:58.720Z,1012.51
2022-10-28T14:43:57.229Z,1012.49
2022-10-28T14:44:58.379Z,1012.51
2022-10-28T14:45:59.126Z,1012.51
2022-10-28T14:46:59.351Z,1012.52
2022-10-28T14:47:58.640Z,1012.51
2022-10-28T14:48:59.555Z,1012.50
2022-10-28T14:49:58.048Z,1012.48
2022-10-28T14:50:58.190Z,1012.51
2022-10-28T14:51:58.356Z,1012.51
2022-10-28T14:52:59.087Z,1012.48
2022-10-28T14:53:58.580Z,1012.46
2022-10-28T14:54:58.748Z,1012.45
2022-10-28T14:56:00.493Z,1012.50
2022-10-28T14:56:59.068Z,1012.44
2022-10-28T14:57:59.808Z,1012.48
2022-10-28T14:59:00.316Z,1012.50
2022-10-28T15:00:00.101Z,1012.48
2022-10-28T15:00:59.687Z,1012.43
2022-10-28T15:02:00.471Z,1012.51
2022-10-28T15:02:59.928Z,1012.49
2022-10-28T15:04:00.105Z,1012.48
2022-10-28T15:05:00.260Z,1012.44
2022-10-28T15:06:01.498Z,1012.45
2022-10-28T15:07:00.469Z,1012.48
2022-10-28T15:08:00.654Z,1012.53
2022-10-28T15:09:01.338Z,1012.49
2022-10-28T15:10:01.018Z,1012.48
2022-10-28T15:11:01.674Z,1012.51
2022-10-28T15:12:01.196Z,1012.48
2022-10-28T15:13:02.347Z,1012.50
2022-10-28T15:14:01.477Z,1012.54
2022-10-28T15:15:01.649Z,1012.53
2022-10-28T15:16:03.875Z,1012.58
2022-10-28T15:17:01.906Z,1012.60
2022-10-28T15:18:03.656Z,1012.55
2022-10-28T15:19:02.158Z,1012.56
2022-10-28T15:20:02.326Z,1012.60
2022-10-28T15:21:03.046Z,1012.58
2022-10-28T15:22:04.301Z,1012.59
2022-10-28T15:23:03.476Z,1012.61
2022-10-28T15:24:02.915Z,1012.58
2022-10-28T15:25:02.995Z,1012.56
2022-10-28T15:26:04.743Z,1012.57
2022-10-28T15:27:04.944Z,1012.57
2022-10-28T15:28:04.275Z,1012.61
2022-10-28T15:29:05.084Z,1012.59
2022-10-28T15:30:05.315Z,1012.57
2022-10-28T15:31:03.782Z,1012.61
2022-10-28T15:32:03.945Z,1012.61
2022-10-28T15:33:04.067Z,1012.64
2022-10-28T15:34:04.234Z,1012.61
2022-10-28T15:35:04.394Z,1012.65
2022-10-28T15:36:06.113Z,1012.69
2022-10-28T15:37:04.705Z,1012.70
2022-10-28T15:38:06.402Z,1012.72
2022-10-28T15:39:04.983Z,1012.76
2022-10-28T15:40:07.369Z,1012.74
2022-10-28T15:41:05.282Z,1012.78
2022-10-28T15:42:07.029Z,1012.74
2022-10-28T15:43:05.622Z,1012.75
2022-10-28T15:44:05.653Z,1012.77
2022-10-28T15:45:05.838Z,1012.76
2022-10-28T15:46:07.562Z,1012.77
2022-10-28T15:47:06.048Z,1012.83
2022-10-28T15:48:06.960Z,1012.80
2022-10-28T15:49:06.302Z,1012.81
2022-10-28T15:50:08.120Z,1012.76
2022-10-28T15:51:06.605Z,1012.81
2022-10-28T15:52:08.332Z,1012.84
2022-10-28T15:53:07.941Z,1012.84
2022-10-28T15:54:07.010Z,1012.94
2022-10-28T15:55:08.080Z,1012.88
2022-10-28T15:56:08.290Z,1012.87
2022-10-28T15:57:09.031Z,1012.88
2022-10-28T15:58:08.301Z,1012.86
2022-10-28T15:59:09.285Z,1012.88
2022-10-28T16:00:08.625Z,1012.89
2022-10-28T16:01:09.175Z,1012.92
2022-10-28T16:12:30.895Z,1013.05
2022-10-28T16:13:32.634Z,1013.12
2022-10-28T16:14:31.124Z,1013.14
2022-10-28T16:15:31.282Z,1013.14
2022-10-28T16:16:32.439Z,1013.13
2022-10-28T16:17:33.162Z,1013.19
2022-10-28T16:18:31.703Z,1013.17
2022-10-28T16:19:31.792Z,1013.17
2022-10-28T16:20:32.008Z,1013.16
2022-10-28T16:21:33.169Z,1013.19
2022-10-28T16:22:32.292Z,1013.19
2022-10-28T16:23:32.422Z,1013.23
2022-10-28T16:24:34.142Z,1013.27
2022-10-28T16:25:34.362Z,1013.28
2022-10-28T16:26:32.832Z,1013.31
2022-10-28T16:27:34.559Z,1013.30
2022-10-28T16:28:33.123Z,1013.33